sensor_id;sensor_type;location;lat;lon;timestamp;temperature;humidity
9668;DHT22;4872;48.316;10.650;2023-01-15T05:06:07;10.80;84.50
9668;DHT22;4872;48.316;10.650;2023-01-15T05:08:35;10.70;85.00
9668;DHT22;4872;48.316;10.650;2023-01-15T05:11:02;10.90;85.60
9668;DHT22;4872;48.316;10.650;2023-01-15T05:13:29;10.90;86.00
9668;DHT22;4872;48.316;10.650;2023-01-15T05:16:11;10.90;87.20
9668;DHT22;4872;48.316;10.650;2023-01-15T05:18:38;10.90;87.10
9668;DHT22;4872;48.316;10.650;2023-01-15T05:21:08;10.80;87.10
9668;DHT22;4872;48.316;10.650;2023-01-15T05:23:38;10.90;87.50
9668;DHT22;4872;48.316;10.650;2023-01-15T05:26:05;10.90;87.60
9668;DHT22;4872;48.316;10.650;2023-01-15T05:28:32;10.90;88.00
9668;DHT22;4872;48.316;10.650;2023-01-15T05:31:04;10.90;87.90
9668;DHT22;4872;48.316;10.650;2023-01-15T05:33:32;10.80;88.10
9668;DHT22;4872;48.316;10.650;2023-01-15T05:36:01;10.90;88.30
9668;DHT22;4872;48.316;10.650;2023-01-15T05:38:29;10.90;88.30
9668;DHT22;4872;48.316;10.650;2023-01-15T05:40:56;10.90;88.70
9668;DHT22;4872;48.316;10.650;2023-01-15T05:43:23;10.90;88.90
9668;DHT22;4872;48.316;10.650;2023-01-15T05:45:50;11.00;89.40
9668;DHT22;4872;48.316;10.650;2023-01-15T05:48:17;10.80;89.70
9668;DHT22;4872;48.316;10.650;2023-01-15T05:50:43;11.00;90.10
9668;DHT22;4872;48.316;10.650;2023-01-15T05:53:10;11.00;90.20
9668;DHT22;4872;48.316;10.650;2023-01-15T05:55:38;10.90;90.40
9668;DHT22;4872;48.316;10.650;2023-01-15T05:58:05;11.00;90.60
9668;DHT22;4872;48.316;10.650;2023-01-15T06:00:32;11.00;90.80
9668;DHT22;4872;48.316;10.650;2023-01-15T06:02:59;11.00;90.90
9668;DHT22;4872;48.316;10.650;2023-01-15T06:05:26;11.10;91.10
9668;DHT22;4872;48.316;10.650;2023-01-15T06:07:52;11.00;91.20
9668;DHT22;4872;48.316;10.650;2023-01-15T06:10:19;11.00;91.30
9668;DHT22;4872;48.316;10.650;2023-01-15T06:12:47;11.00;91.40
9668;DHT22;4872;48.316;10.650;2023-01-15T06:15:14;11.00;91.60
9668;DHT22;4872;48.316;10.650;2023-01-15T06:17:41;10.90;91.70
9668;DHT22;4872;48.316;10.650;2023-01-15T06:20:09;10.90;91.90
9668;DHT22;4872;48.316;10.650;2023-01-15T06:22:36;10.90;92.00
9668;DHT22;4872;48.316;10.650;2023-01-15T06:25:04;10.90;92.20
9668;DHT22;4872;48.316;10.650;2023-01-15T06:27:31;10.80;92.30
9668;DHT22;4872;48.316;10.650;2023-01-15T06:29:59;10.80;92.40
9668;DHT22;4872;48.316;10.650;2023-01-15T06:32:25;10.80;92.50
9668;DHT22;4872;48.316;10.650;2023-01-15T06:34:52;10.80;92.50
9668;DHT22;4872;48.316;10.650;2023-01-15T06:37:19;10.80;92.50
9668;DHT22;4872;48.316;10.650;2023-01-15T06:39:46;10.70;92.60
9668;DHT22;4872;48.316;10.650;2023-01-15T06:42:13;10.70;92.80
9668;DHT22;4872;48.316;10.650;2023-01-15T06:44:58;10.70;93.00
9668;DHT22;4872;48.316;10.650;2023-01-15T06:47:43;10.60;92.80
9668;DHT22;4872;48.316;10.650;2023-01-15T06:50:10;10.60;92.90
9668;DHT22;4872;48.316;10.650;2023-01-15T06:52:38;10.50;92.80
9668;DHT22;4872;48.316;10.650;2023-01-15T06:55:05;10.50;92.80
9668;DHT22;4872;48.316;10.650;2023-01-15T06:57:32;10.40;92.80
9668;DHT22;4872;48.316;10.650;2023-01-15T07:00:00;10.40;92.90
9668;DHT22;4872;48.316;10.650;2023-01-15T07:02:27;10.30;92.90
9668;DHT22;4872;48.316;10.650;2023-01-15T07:04:54;10.30;93.00
9668;DHT22;4872;48.316;10.650;2023-01-15T07:07:21;10.20;93.00
9668;DHT22;4872;48.316;10.650;2023-01-15T07:09:48;10.10;93.10
9668;DHT22;4872;48.316;10.650;2023-01-15T07:12:16;10.20;93.30
9668;DHT22;4872;48.316;10.650;2023-01-15T07:14:42;10.20;93.40
9668;DHT22;4872;48.316;10.650;2023-01-15T07:17:11;10.20;93.50
9668;DHT22;4872;48.316;10.650;2023-01-15T07:19:37;10.20;93.60
9668;DHT22;4872;48.316;10.650;2023-01-15T07:22:05;10.20;93.80
9668;DHT22;4872;48.316;10.650;2023-01-15T07:24:31;10.20;94.00
9668;DHT22;4872;48.316;10.650;2023-01-15T07:26:58;10.10;94.10
9668;DHT22;4872;48.316;10.650;2023-01-15T07:29:25;10.00;94.30
9668;DHT22;4872;48.316;10.650;2023-01-15T07:31:52;10.00;94.40
9668;DHT22;4872;48.316;10.650;2023-01-15T07:34:20;10.10;94.60
9668;DHT22;4872;48.316;10.650;2023-01-15T07:36:47;9.90;95.10
9668;DHT22;4872;48.316;10.650;2023-01-15T07:39:14;10.00;94.80
9668;DHT22;4872;48.316;10.650;2023-01-15T07:41:41;9.90;95.40
9668;DHT22;4872;48.316;10.650;2023-01-15T07:44:25;9.90;95.50
9668;DHT22;4872;48.316;10.650;2023-01-15T07:47:15;9.90;95.70
9668;DHT22;4872;48.316;10.650;2023-01-15T07:50:02;10.00;95.40
9668;DHT22;4872;48.316;10.650;2023-01-15T07:52:29;9.90;96.10
9668;DHT22;4872;48.316;10.650;2023-01-15T07:54:56;9.80;96.10
9668;DHT22;4872;48.316;10.650;2023-01-15T07:57:23;9.90;96.20
9668;DHT22;4872;48.316;10.650;2023-01-15T07:59:50;9.90;96.40
9668;DHT22;4872;48.316;10.650;2023-01-15T08:02:17;9.90;96.50
9668;DHT22;4872;48.316;10.650;2023-01-15T08:04:44;9.90;96.60
9668;DHT22;4872;48.316;10.650;2023-01-15T08:07:14;9.90;96.60
9668;DHT22;4872;48.316;10.650;2023-01-15T08:09:41;9.90;96.60
9668;DHT22;4872;48.316;10.650;2023-01-15T08:12:09;9.90;96.50
9668;DHT22;4872;48.316;10.650;2023-01-15T08:14:54;10.00;96.00
9668;DHT22;4872;48.316;10.650;2023-01-15T08:17:40;10.10;96.00
9668;DHT22;4872;48.316;10.650;2023-01-15T08:20:09;10.10;95.90
9668;DHT22;4872;48.316;10.650;2023-01-15T08:22:38;10.20;96.00
9668;DHT22;4872;48.316;10.650;2023-01-15T08:25:06;10.10;95.90
9668;DHT22;4872;48.316;10.650;2023-01-15T08:27:34;10.20;95.90
9668;DHT22;4872;48.316;10.650;2023-01-15T08:30:01;10.20;95.90
9668;DHT22;4872;48.316;10.650;2023-01-15T08:32:27;10.30;96.00
9668;DHT22;4872;48.316;10.650;2023-01-15T08:34:54;10.30;95.90
9668;DHT22;4872;48.316;10.650;2023-01-15T08:37:21;10.30;96.00
9668;DHT22;4872;48.316;10.650;2023-01-15T08:39:49;10.30;95.90
9668;DHT22;4872;48.316;10.650;2023-01-15T08:42:17;10.40;95.90
9668;DHT22;4872;48.316;10.650;2023-01-15T08:44:44;10.40;95.90
9668;DHT22;4872;48.316;10.650;2023-01-15T08:47:11;10.40;95.80
9668;DHT22;4872;48.316;10.650;2023-01-15T08:49:38;10.50;95.80
9668;DHT22;4872;48.316;10.650;2023-01-15T08:52:04;10.50;96.00
9668;DHT22;4872;48.316;10.650;2023-01-15T08:54:31;10.70;95.70
9668;DHT22;4872;48.316;10.650;2023-01-15T08:57:00;10.70;95.70
9668;DHT22;4872;48.316;10.650;2023-01-15T08:59:27;10.70;95.80
9668;DHT22;4872;48.316;10.650;2023-01-15T09:01:53;10.70;95.80
9668;DHT22;4872;48.316;10.650;2023-01-15T09:04:20;10.70;95.80
9668;DHT22;4872;48.316;10.650;2023-01-15T09:06:48;10.40;95.80
9668;DHT22;4872;48.316;10.650;2023-01-15T09:09:15;9.00;96.90
9668;DHT22;4872;48.316;10.650;2023-01-15T09:11:43;8.40;98.20
9668;DHT22;4872;48.316;10.650;2023-01-15T09:14:13;8.30;99.10
9668;DHT22;4872;48.316;10.650;2023-01-15T09:16:40;7.60;99.90
9668;DHT22;4872;48.316;10.650;2023-01-15T09:19:09;7.20;99.90
9668;DHT22;4872;48.316;10.650;2023-01-15T09:21:36;6.90;99.90
9668;DHT22;4872;48.316;10.650;2023-01-15T09:24:04;6.50;99.90
9668;DHT22;4872;48.316;10.650;2023-01-15T09:26:33;6.40;99.90
9668;DHT22;4872;48.316;10.650;2023-01-15T09:29:01;6.40;99.90
9668;DHT22;4872;48.316;10.650;2023-01-15T09:31:30;6.20;99.90
9668;DHT22;4872;48.316;10.650;2023-01-15T09:33:57;6.20;99.90
9668;DHT22;4872;48.316;10.650;2023-01-15T09:36:26;6.10;99.90
9668;DHT22;4872;48.316;10.650;2023-01-15T09:38:54;6.00;99.90
9668;DHT22;4872;48.316;10.650;2023-01-15T09:41:29;5.90;99.90
9668;DHT22;4872;48.316;10.650;2023-01-15T09:44:29;5.80;99.90
9668;DHT22;4872;48.316;10.650;2023-01-15T09:47:07;5.80;99.90
9668;DHT22;4872;48.316;10.650;2023-01-15T09:49:45;5.80;99.90
9668;DHT22;4872;48.316;10.650;2023-01-15T09:52:19;5.90;99.90
9668;DHT22;4872;48.316;10.650;2023-01-15T09:54:55;5.70;99.90
9668;DHT22;4872;48.316;10.650;2023-01-15T09:57:24;5.60;99.90
9668;DHT22;4872;48.316;10.650;2023-01-15T09:59:54;5.50;99.90
9668;DHT22;4872;48.316;10.650;2023-01-15T10:02:29;5.60;99.90
9668;DHT22;4872;48.316;10.650;2023-01-15T10:05:03;5.60;99.90
9668;DHT22;4872;48.316;10.650;2023-01-15T10:07:38;5.60;99.90
9668;DHT22;4872;48.316;10.650;2023-01-15T10:10:11;5.70;99.90
9668;DHT22;4872;48.316;10.650;2023-01-15T10:12:38;5.80;99.90
9668;DHT22;4872;48.316;10.650;2023-01-15T10:15:29;5.80;99.90
9668;DHT22;4872;48.316;10.650;2023-01-15T10:17:59;5.70;99.90
9668;DHT22;4872;48.316;10.650;2023-01-15T10:20:51;5.70;99.90
9668;DHT22;4872;48.316;10.650;2023-01-15T10:23:35;5.70;99.90
9668;DHT22;4872;48.316;10.650;2023-01-15T10:26:11;5.60;99.90
9668;DHT22;4872;48.316;10.650;2023-01-15T10:28:51;5.60;99.90
9668;DHT22;4872;48.316;10.650;2023-01-15T10:31:26;5.50;99.90
9668;DHT22;4872;48.316;10.650;2023-01-15T10:34:09;5.60;99.90
9668;DHT22;4872;48.316;10.650;2023-01-15T10:36:41;5.70;99.90
9668;DHT22;4872;48.316;10.650;2023-01-15T10:39:15;5.60;99.90
9668;DHT22;4872;48.316;10.650;2023-01-15T10:41:51;5.70;99.90
9668;DHT22;4872;48.316;10.650;2023-01-15T10:44:31;5.60;99.90
9668;DHT22;4872;48.316;10.650;2023-01-15T10:47:06;5.50;99.90
9668;DHT22;4872;48.316;10.650;2023-01-15T10:49:39;5.60;99.90
9668;DHT22;4872;48.316;10.650;2023-01-15T10:52:13;5.40;99.90
9668;DHT22;4872;48.316;10.650;2023-01-15T10:54:46;5.30;99.90
9668;DHT22;4872;48.316;10.650;2023-01-15T10:57:20;5.30;99.90
9668;DHT22;4872;48.316;10.650;2023-01-15T10:59:55;5.30;99.90
9668;DHT22;4872;48.316;10.650;2023-01-15T11:02:27;5.30;99.90
9668;DHT22;4872;48.316;10.650;2023-01-15T11:04:57;5.30;99.90
9668;DHT22;4872;48.316;10.650;2023-01-15T11:07:33;5.40;99.90
9668;DHT22;4872;48.316;10.650;2023-01-15T11:10:06;5.40;99.90
9668;DHT22;4872;48.316;10.650;2023-01-15T11:12:33;5.40;99.90
9668;DHT22;4872;48.316;10.650;2023-01-15T11:15:23;5.50;99.90
9668;DHT22;4872;48.316;10.650;2023-01-15T11:18:21;5.70;99.90
9668;DHT22;4872;48.316;10.650;2023-01-15T11:21:16;5.60;99.90
9668;DHT22;4872;48.316;10.650;2023-01-15T11:23:44;5.70;99.90
9668;DHT22;4872;48.316;10.650;2023-01-15T11:26:21;5.70;99.90
9668;DHT22;4872;48.316;10.650;2023-01-15T11:29:19;5.70;99.90
9668;DHT22;4872;48.316;10.650;2023-01-15T11:31:53;5.60;99.90
9668;DHT22;4872;48.316;10.650;2023-01-15T11:34:27;5.70;99.90
9668;DHT22;4872;48.316;10.650;2023-01-15T11:37:18;5.90;99.90
9668;DHT22;4872;48.316;10.650;2023-01-15T11:39:59;5.80;99.90
9668;DHT22;4872;48.316;10.650;2023-01-15T11:45:50;5.90;99.90
9668;DHT22;4872;48.316;10.650;2023-01-15T11:48:43;5.90;99.90
9668;DHT22;4872;48.316;10.650;2023-01-15T11:51:28;6.00;99.90
9668;DHT22;4872;48.316;10.650;2023-01-15T11:54:02;6.10;99.90
9668;DHT22;4872;48.316;10.650;2023-01-15T11:56:31;6.00;99.90
9668;DHT22;4872;48.316;10.650;2023-01-15T11:59:02;5.90;99.90
9668;DHT22;4872;48.316;10.650;2023-01-15T12:01:31;5.90;99.90
9668;DHT22;4872;48.316;10.650;2023-01-15T12:04:00;5.90;99.90
9668;DHT22;4872;48.316;10.650;2023-01-15T12:06:29;6.00;99.90
9668;DHT22;4872;48.316;10.650;2023-01-15T12:09:04;5.90;99.90
9668;DHT22;4872;48.316;10.650;2023-01-15T12:11:45;6.00;99.90
9668;DHT22;4872;48.316;10.650;2023-01-15T12:14:43;5.90;99.90
9668;DHT22;4872;48.316;10.650;2023-01-15T12:17:28;5.90;99.90
9668;DHT22;4872;48.316;10.650;2023-01-15T12:20:05;5.80;99.90
9668;DHT22;4872;48.316;10.650;2023-01-15T12:22:51;5.60;99.90
9668;DHT22;4872;48.316;10.650;2023-01-15T12:25:25;5.50;99.90
9668;DHT22;4872;48.316;10.650;2023-01-15T12:27:58;5.50;99.90
9668;DHT22;4872;48.316;10.650;2023-01-15T12:30:38;5.50;99.90
9668;DHT22;4872;48.316;10.650;2023-01-15T12:33:20;5.40;99.90
9668;DHT22;4872;48.316;10.650;2023-01-15T12:35:52;5.40;99.90
9668;DHT22;4872;48.316;10.650;2023-01-15T12:38:33;5.20;99.90
9668;DHT22;4872;48.316;10.650;2023-01-15T12:41:09;5.10;99.90
9668;DHT22;4872;48.316;10.650;2023-01-15T12:43:38;5.10;99.90
9668;DHT22;4872;48.316;10.650;2023-01-15T12:46:26;5.10;99.90
9668;DHT22;4872;48.316;10.650;2023-01-15T12:48:58;5.10;99.90
9668;DHT22;4872;48.316;10.650;2023-01-15T12:51:31;5.20;99.90
9668;DHT22;4872;48.316;10.650;2023-01-15T12:54:04;5.10;99.90
9668;DHT22;4872;48.316;10.650;2023-01-15T12:56:44;5.10;99.90
9668;DHT22;4872;48.316;10.650;2023-01-15T12:59:18;5.10;99.90
9668;DHT22;4872;48.316;10.650;2023-01-15T13:01:51;5.10;99.90
9668;DHT22;4872;48.316;10.650;2023-01-15T13:04:24;5.00;99.90
9668;DHT22;4872;48.316;10.650;2023-01-15T13:06:58;5.10;99.90
9668;DHT22;4872;48.316;10.650;2023-01-15T13:09:33;5.00;99.90
9668;DHT22;4872;48.316;10.650;2023-01-15T13:12:10;5.10;99.90
9668;DHT22;4872;48.316;10.650;2023-01-15T13:14:37;5.00;99.90
9668;DHT22;4872;48.316;10.650;2023-01-15T13:17:10;5.00;99.90
9668;DHT22;4872;48.316;10.650;2023-01-15T13:19:48;5.00;99.90
9668;DHT22;4872;48.316;10.650;2023-01-15T13:22:19;4.90;99.90
9668;DHT22;4872;48.316;10.650;2023-01-15T13:25:01;4.90;99.90
9668;DHT22;4872;48.316;10.650;2023-01-15T13:27:47;4.80;99.90
9668;DHT22;4872;48.316;10.650;2023-01-15T13:30:30;4.80;99.90
9668;DHT22;4872;48.316;10.650;2023-01-15T13:33:09;4.80;99.90
9668;DHT22;4872;48.316;10.650;2023-01-15T13:35:40;4.70;99.90
9668;DHT22;4872;48.316;10.650;2023-01-15T13:38:15;4.70;99.90
9668;DHT22;4872;48.316;10.650;2023-01-15T13:40:43;4.80;99.90
9668;DHT22;4872;48.316;10.650;2023-01-15T13:43:31;4.70;99.90
9668;DHT22;4872;48.316;10.650;2023-01-15T13:45:59;4.80;99.90
9668;DHT22;4872;48.316;10.650;2023-01-15T13:48:30;4.80;99.90
9668;DHT22;4872;48.316;10.650;2023-01-15T13:50:59;4.80;99.90
9668;DHT22;4872;48.316;10.650;2023-01-15T13:53:29;4.90;99.90
9668;DHT22;4872;48.316;10.650;2023-01-15T13:55:59;4.90;99.90
9668;DHT22;4872;48.316;10.650;2023-01-15T13:58:33;4.70;99.90
9668;DHT22;4872;48.316;10.650;2023-01-15T14:01:05;4.70;99.90
9668;DHT22;4872;48.316;10.650;2023-01-15T14:03:34;4.60;99.90
9668;DHT22;4872;48.316;10.650;2023-01-15T14:06:04;4.60;99.90
9668;DHT22;4872;48.316;10.650;2023-01-15T14:08:39;4.60;99.90
9668;DHT22;4872;48.316;10.650;2023-01-15T14:11:29;4.60;99.90
9668;DHT22;4872;48.316;10.650;2023-01-15T14:14:25;4.60;99.90
9668;DHT22;4872;48.316;10.650;2023-01-15T14:17:07;4.50;99.90
9668;DHT22;4872;48.316;10.650;2023-01-15T14:22:46;4.50;99.90
9668;DHT22;4872;48.316;10.650;2023-01-15T14:25:23;4.50;99.90
9668;DHT22;4872;48.316;10.650;2023-01-15T14:28:06;4.50;99.90
9668;DHT22;4872;48.316;10.650;2023-01-15T14:31:18;4.50;99.90
9668;DHT22;4872;48.316;10.650;2023-01-15T14:34:02;4.40;99.90
9668;DHT22;4872;48.316;10.650;2023-01-15T14:36:36;4.50;99.90
9668;DHT22;4872;48.316;10.650;2023-01-15T14:39:08;4.50;99.90
9668;DHT22;4872;48.316;10.650;2023-01-15T14:41:55;4.40;99.90
9668;DHT22;4872;48.316;10.650;2023-01-15T14:44:42;4.30;99.90
9668;DHT22;4872;48.316;10.650;2023-01-15T14:47:20;4.30;99.90
9668;DHT22;4872;48.316;10.650;2023-01-15T14:49:59;4.40;99.90
9668;DHT22;4872;48.316;10.650;2023-01-15T14:52:26;4.30;99.90
9668;DHT22;4872;48.316;10.650;2023-01-15T14:54:53;4.30;99.90
9668;DHT22;4872;48.316;10.650;2023-01-15T14:57:22;4.30;99.90
9668;DHT22;4872;48.316;10.650;2023-01-15T14:59:54;4.40;99.90
9668;DHT22;4872;48.316;10.650;2023-01-15T15:02:28;4.30;99.90
9668;DHT22;4872;48.316;10.650;2023-01-15T15:04:59;4.20;99.90
9668;DHT22;4872;48.316;10.650;2023-01-15T15:07:32;4.30;99.90
9668;DHT22;4872;48.316;10.650;2023-01-15T15:10:04;4.10;99.90
9668;DHT22;4872;48.316;10.650;2023-01-15T15:12:37;3.90;99.90
9668;DHT22;4872;48.316;10.650;2023-01-15T15:15:11;3.80;99.90
9668;DHT22;4872;48.316;10.650;2023-01-15T15:17:52;3.70;99.90
9668;DHT22;4872;48.316;10.650;2023-01-15T15:20:26;3.70;99.90
9668;DHT22;4872;48.316;10.650;2023-01-15T15:22:56;3.60;99.90
9668;DHT22;4872;48.316;10.650;2023-01-15T15:25:31;3.60;99.90
9668;DHT22;4872;48.316;10.650;2023-01-15T15:28:03;3.50;99.90
9668;DHT22;4872;48.316;10.650;2023-01-15T15:30:32;3.50;99.90
9668;DHT22;4872;48.316;10.650;2023-01-15T15:33:03;3.40;99.90
9668;DHT22;4872;48.316;10.650;2023-01-15T15:35:30;3.40;99.90
9668;DHT22;4872;48.316;10.650;2023-01-15T15:38:03;3.40;99.90
9668;DHT22;4872;48.316;10.650;2023-01-15T15:40:32;3.30;99.90
9668;DHT22;4872;48.316;10.650;2023-01-15T15:43:05;3.30;99.90
9668;DHT22;4872;48.316;10.650;2023-01-15T15:45:53;3.30;99.90
9668;DHT22;4872;48.316;10.650;2023-01-15T15:48:40;3.30;99.90
9668;DHT22;4872;48.316;10.650;2023-01-15T15:51:38;3.30;99.90
9668;DHT22;4872;48.316;10.650;2023-01-15T15:54:12;3.30;99.90
9668;DHT22;4872;48.316;10.650;2023-01-15T15:56:44;3.30;99.90
9668;DHT22;4872;48.316;10.650;2023-01-15T15:59:17;3.40;99.90
9668;DHT22;4872;48.316;10.650;2023-01-15T16:01:45;3.50;99.90
9668;DHT22;4872;48.316;10.650;2023-01-15T16:04:18;3.50;99.90
9668;DHT22;4872;48.316;10.650;2023-01-15T16:06:46;3.50;99.90
9668;DHT22;4872;48.316;10.650;2023-01-15T16:09:14;3.50;99.90
9668;DHT22;4872;48.316;10.650;2023-01-15T16:11:45;3.50;99.90
9668;DHT22;4872;48.316;10.650;2023-01-15T16:14:12;3.70;99.90
9668;DHT22;4872;48.316;10.650;2023-01-15T16:16:42;3.60;99.90
9668;DHT22;4872;48.316;10.650;2023-01-15T16:19:16;3.70;99.90
9668;DHT22;4872;48.316;10.650;2023-01-15T16:21:44;3.60;99.90
9668;DHT22;4872;48.316;10.650;2023-01-15T16:24:22;3.60;99.90
9668;DHT22;4872;48.316;10.650;2023-01-15T16:26:54;3.60;99.90
9668;DHT22;4872;48.316;10.650;2023-01-15T16:29:24;3.60;99.90
9668;DHT22;4872;48.316;10.650;2023-01-15T16:31:52;3.60;99.90
9668;DHT22;4872;48.316;10.650;2023-01-15T16:34:25;3.60;99.90
9668;DHT22;4872;48.316;10.650;2023-01-15T16:36:52;3.60;99.90
9668;DHT22;4872;48.316;10.650;2023-01-15T16:39:23;3.50;99.90
9668;DHT22;4872;48.316;10.650;2023-01-15T16:41:51;3.50;99.90
9668;DHT22;4872;48.316;10.650;2023-01-15T16:44:27;3.40;99.90
9668;DHT22;4872;48.316;10.650;2023-01-15T16:46:58;3.40;99.90
9668;DHT22;4872;48.316;10.650;2023-01-15T16:49:29;3.50;99.90
9668;DHT22;4872;48.316;10.650;2023-01-15T16:51:59;3.40;99.90
9668;DHT22;4872;48.316;10.650;2023-01-15T16:54:40;3.50;99.90
9668;DHT22;4872;48.316;10.650;2023-01-15T16:57:26;3.30;99.90
9668;DHT22;4872;48.316;10.650;2023-01-15T16:59:55;3.30;99.90
9668;DHT22;4872;48.316;10.650;2023-01-15T17:02:22;3.30;99.90
9668;DHT22;4872;48.316;10.650;2023-01-15T17:04:50;3.20;99.90
9668;DHT22;4872;48.316;10.650;2023-01-15T17:07:19;3.30;99.90
9668;DHT22;4872;48.316;10.650;2023-01-15T17:09:50;3.20;99.90
9668;DHT22;4872;48.316;10.650;2023-01-15T17:12:23;3.10;99.90
9668;DHT22;4872;48.316;10.650;2023-01-15T17:14:50;3.20;99.90
9668;DHT22;4872;48.316;10.650;2023-01-15T17:17:24;3.00;99.90
9668;DHT22;4872;48.316;10.650;2023-01-15T17:19:54;3.20;99.90
9668;DHT22;4872;48.316;10.650;2023-01-15T17:22:23;3.00;99.90
9668;DHT22;4872;48.316;10.650;2023-01-15T17:24:52;3.10;99.90
9668;DHT22;4872;48.316;10.650;2023-01-15T17:27:19;3.00;99.90
9668;DHT22;4872;48.316;10.650;2023-01-15T17:29:46;3.00;99.90
9668;DHT22;4872;48.316;10.650;2023-01-15T17:32:14;2.90;99.90
9668;DHT22;4872;48.316;10.650;2023-01-15T17:34:42;2.90;99.90
9668;DHT22;4872;48.316;10.650;2023-01-15T17:37:10;2.90;99.90
9668;DHT22;4872;48.316;10.650;2023-01-15T17:39:37;2.90;99.90
9668;DHT22;4872;48.316;10.650;2023-01-15T17:42:11;2.90;99.90
9668;DHT22;4872;48.316;10.650;2023-01-15T17:44:38;2.90;99.90
9668;DHT22;4872;48.316;10.650;2023-01-15T17:47:05;2.90;99.90
9668;DHT22;4872;48.316;10.650;2023-01-15T17:49:32;2.90;99.90
9668;DHT22;4872;48.316;10.650;2023-01-15T17:51:59;2.90;99.90
9668;DHT22;4872;48.316;10.650;2023-01-15T17:54:28;2.90;99.90
9668;DHT22;4872;48.316;10.650;2023-01-15T17:57:12;2.90;99.90
9668;DHT22;4872;48.316;10.650;2023-01-15T17:59:56;3.00;99.90
9668;DHT22;4872;48.316;10.650;2023-01-15T18:02:40;2.90;99.90
9668;DHT22;4872;48.316;10.650;2023-01-15T18:05:24;2.90;99.90
9668;DHT22;4872;48.316;10.650;2023-01-15T18:07:52;2.80;99.90
9668;DHT22;4872;48.316;10.650;2023-01-15T18:10:24;2.80;99.90
9668;DHT22;4872;48.316;10.650;2023-01-15T18:12:51;2.80;99.90
9668;DHT22;4872;48.316;10.650;2023-01-15T18:15:18;2.80;99.90
9668;DHT22;4872;48.316;10.650;2023-01-15T18:17:45;2.80;99.90
9668;DHT22;4872;48.316;10.650;2023-01-15T18:20:12;2.80;99.90
9668;DHT22;4872;48.316;10.650;2023-01-15T18:22:39;2.90;99.90
9668;DHT22;4872;48.316;10.650;2023-01-15T18:25:06;2.80;99.90
9668;DHT22;4872;48.316;10.650;2023-01-15T18:27:37;2.80;99.90
9668;DHT22;4872;48.316;10.650;2023-01-15T18:30:08;2.80;99.90
9668;DHT22;4872;48.316;10.650;2023-01-15T18:32:35;2.80;99.90
9668;DHT22;4872;48.316;10.650;2023-01-15T18:35:03;2.70;99.90
9668;DHT22;4872;48.316;10.650;2023-01-15T18:37:31;2.80;99.90
9668;DHT22;4872;48.316;10.650;2023-01-15T18:39:58;2.80;99.90
9668;DHT22;4872;48.316;10.650;2023-01-15T18:42:25;2.80;99.90
9668;DHT22;4872;48.316;10.650;2023-01-15T18:45:11;2.70;99.90
9668;DHT22;4872;48.316;10.650;2023-01-15T18:47:55;2.70;99.90
9668;DHT22;4872;48.316;10.650;2023-01-15T18:50:22;2.60;99.90
9668;DHT22;4872;48.316;10.650;2023-01-15T18:52:49;2.60;99.90
9668;DHT22;4872;48.316;10.650;2023-01-15T18:55:16;2.60;99.90
9668;DHT22;4872;48.316;10.650;2023-01-15T18:57:44;2.60;99.90
9668;DHT22;4872;48.316;10.650;2023-01-15T19:00:13;2.60;99.80
9668;DHT22;4872;48.316;10.650;2023-01-15T19:02:40;2.60;99.70
9668;DHT22;4872;48.316;10.650;2023-01-15T19:05:08;2.60;99.60
9668;DHT22;4872;48.316;10.650;2023-01-15T19:07:37;2.60;99.50
9668;DHT22;4872;48.316;10.650;2023-01-15T19:10:05;2.60;99.50
9668;DHT22;4872;48.316;10.650;2023-01-15T19:12:33;2.50;99.60
9668;DHT22;4872;48.316;10.650;2023-01-15T19:15:00;2.50;99.60
9668;DHT22;4872;48.316;10.650;2023-01-15T19:17:46;2.50;99.70
9668;DHT22;4872;48.316;10.650;2023-01-15T19:20:30;2.40;99.50
9668;DHT22;4872;48.316;10.650;2023-01-15T19:22:57;2.40;99.60
9668;DHT22;4872;48.316;10.650;2023-01-15T19:25:25;2.40;99.60
9668;DHT22;4872;48.316;10.650;2023-01-15T19:27:53;2.40;99.60
9668;DHT22;4872;48.316;10.650;2023-01-15T19:30:21;2.40;99.50
9668;DHT22;4872;48.316;10.650;2023-01-15T19:32:50;2.30;99.50
9668;DHT22;4872;48.316;10.650;2023-01-15T19:35:17;2.30;99.40
9668;DHT22;4872;48.316;10.650;2023-01-15T19:37:46;2.40;99.40
9668;DHT22;4872;48.316;10.650;2023-01-15T19:40:15;2.40;99.70
9668;DHT22;4872;48.316;10.650;2023-01-15T19:42:44;2.40;99.40
9668;DHT22;4872;48.316;10.650;2023-01-15T19:45:28;2.50;99.40
9668;DHT22;4872;48.316;10.650;2023-01-15T19:48:14;2.40;99.40
9668;DHT22;4872;48.316;10.650;2023-01-15T19:51:00;2.40;99.60
9668;DHT22;4872;48.316;10.650;2023-01-15T19:53:27;2.30;99.40
9668;DHT22;4872;48.316;10.650;2023-01-15T19:55:57;2.40;99.60
9668;DHT22;4872;48.316;10.650;2023-01-15T19:58:24;2.30;99.50
9668;DHT22;4872;48.316;10.650;2023-01-15T20:00:51;2.30;99.60
9668;DHT22;4872;48.316;10.650;2023-01-15T20:09:50;2.30;99.00
9668;DHT22;4872;48.316;10.650;2023-01-15T20:12:17;2.40;99.00
9668;DHT22;4872;48.316;10.650;2023-01-15T20:15:02;2.30;98.80
9668;DHT22;4872;48.316;10.650;2023-01-15T20:17:29;2.30;98.80
9668;DHT22;4872;48.316;10.650;2023-01-15T20:19:56;2.40;98.80
9668;DHT22;4872;48.316;10.650;2023-01-15T20:22:23;2.50;98.80
9668;DHT22;4872;48.316;10.650;2023-01-15T20:24:52;2.40;98.70
9668;DHT22;4872;48.316;10.650;2023-01-15T20:27:20;2.50;98.50
9668;DHT22;4872;48.316;10.650;2023-01-15T20:29:47;2.40;98.50
9668;DHT22;4872;48.316;10.650;2023-01-15T20:32:14;2.40;98.20
9668;DHT22;4872;48.316;10.650;2023-01-15T20:34:41;2.40;98.40
9668;DHT22;4872;48.316;10.650;2023-01-15T20:37:09;2.30;98.20
9668;DHT22;4872;48.316;10.650;2023-01-15T20:39:36;2.40;98.10
9668;DHT22;4872;48.316;10.650;2023-01-15T20:42:05;2.40;98.00
9668;DHT22;4872;48.316;10.650;2023-01-15T20:44:49;2.40;98.00
9668;DHT22;4872;48.316;10.650;2023-01-15T20:47:19;2.40;97.90
9668;DHT22;4872;48.316;10.650;2023-01-15T20:50:05;2.40;97.90
9668;DHT22;4872;48.316;10.650;2023-01-15T20:52:34;2.40;97.80
9668;DHT22;4872;48.316;10.650;2023-01-15T20:55:01;2.40;97.80
9668;DHT22;4872;48.316;10.650;2023-01-15T20:57:32;2.40;97.70
9668;DHT22;4872;48.316;10.650;2023-01-15T21:00:00;2.30;97.60
9668;DHT22;4872;48.316;10.650;2023-01-15T21:02:27;2.30;97.80
9668;DHT22;4872;48.316;10.650;2023-01-15T21:04:54;2.30;97.50
9668;DHT22;4872;48.316;10.650;2023-01-15T21:07:22;2.30;97.60
9668;DHT22;4872;48.316;10.650;2023-01-15T21:09:49;2.30;97.50
9668;DHT22;4872;48.316;10.650;2023-01-15T21:12:16;2.30;97.30
9668;DHT22;4872;48.316;10.650;2023-01-15T21:14:45;2.30;97.20
9668;DHT22;4872;48.316;10.650;2023-01-15T21:17:12;2.40;97.10
9668;DHT22;4872;48.316;10.650;2023-01-15T21:19:39;2.50;96.90
9668;DHT22;4872;48.316;10.650;2023-01-15T21:22:05;2.50;96.60
9668;DHT22;4872;48.316;10.650;2023-01-15T21:24:33;2.60;96.50
9668;DHT22;4872;48.316;10.650;2023-01-15T21:27:00;2.70;96.40
9668;DHT22;4872;48.316;10.650;2023-01-15T21:29:27;2.50;96.40
9668;DHT22;4872;48.316;10.650;2023-01-15T21:31:55;2.50;96.70
9668;DHT22;4872;48.316;10.650;2023-01-15T21:34:22;2.50;96.70
9668;DHT22;4872;48.316;10.650;2023-01-15T21:36:49;2.50;96.70
9668;DHT22;4872;48.316;10.650;2023-01-15T21:39:16;2.40;96.70
9668;DHT22;4872;48.316;10.650;2023-01-15T21:41:44;2.40;96.80
9668;DHT22;4872;48.316;10.650;2023-01-15T21:44:28;2.40;96.70
9668;DHT22;4872;48.316;10.650;2023-01-15T21:47:03;2.50;96.70